Time;durP1;ratioP1;P1;durP2;ratioP2;P2;SDS_P1;SDS_P2;PMS_P1;PMS_P2;Temp;Humidity;BMP_temperature;BMP_pressure;BME280_temperature;BME280_humidity;BME280_pressure;Samples;Min_cycle;Max_cycle;Signal;HPM_P1;HPM_P2
2021/03/31 00:00:01;;;;;;;14.32;7.13;;;13.00;50.90;;;12.20;44.68;99362.75;5100905;28;20436;-83
2021/03/31 00:02:27;;;;;;;13.88;7.25;;;13.10;51.50;;;11.97;45.25;99363.28;5117816;28;20411;-83
2021/03/31 00:04:53;;;;;;;22.33;8.10;;;12.90;52.10;;;12.01;45.30;99356.53;5118324;28;20400;-83
2021/03/31 00:07:21;;;;;;;16.25;7.65;;;12.90;52.40;;;12.06;44.94;99358.53;5100125;28;20426;-83
2021/03/31 00:09:47;;;;;;;16.38;7.40;;;12.90;52.20;;;12.02;45.02;99355.53;5117884;28;20400;-82
2021/03/31 00:12:13;;;;;;;19.20;7.93;;;12.90;52.00;;;12.20;44.78;99354.78;5118522;28;20721;-82
2021/03/31 00:14:40;;;;;;;19.13;8.10;;;13.00;52.30;;;12.02;45.24;99359.00;5100977;28;20400;-81
2021/03/31 00:17:06;;;;;;;18.88;7.68;;;13.00;52.10;;;11.79;45.84;99357.88;5119072;28;20411;-83
2021/03/31 00:19:32;;;;;;;15.82;7.90;;;12.80;52.70;;;11.66;46.25;99356.03;5119131;28;20442;-81
2021/03/31 00:21:58;;;;;;;16.20;7.95;;;12.60;53.10;;;11.65;46.15;99357.06;5118202;28;20415;-81
2021/03/31 00:24:26;;;;;;;18.93;8.20;;;12.60;53.40;;;11.70;46.27;99353.78;5101162;28;20450;-83
2021/03/31 00:26:52;;;;;;;20.98;8.30;;;12.50;53.30;;;11.70;46.05;99351.13;5119151;28;20699;-83
2021/03/31 00:29:18;;;;;;;15.63;7.95;;;12.60;53.30;;;11.60;46.20;99354.22;5119587;28;20453;-83
2021/03/31 00:31:44;;;;;;;22.50;8.10;;;12.50;53.20;;;11.66;45.98;99345.41;5119833;28;20472;-83
2021/03/31 00:34:11;;;;;;;14.50;8.13;;;12.50;53.20;;;11.72;46.15;99346.44;5120430;28;20396;-82
2021/03/31 00:36:37;;;;;;;19.98;8.30;;;12.60;53.40;;;11.72;46.08;99346.44;5120571;28;20404;-83
2021/03/31 00:39:06;;;;;;;18.70;7.95;;;12.60;53.40;;;11.75;46.03;99341.53;5120171;28;20435;-82
2021/03/31 00:41:34;;;;;;;14.97;7.60;;;12.60;54.00;;;11.81;46.28;99351.31;5119900;28;20498;-83
2021/03/31 00:44:00;;;;;;;17.27;7.90;;;12.60;53.50;;;11.71;46.23;99350.91;5119786;28;20455;-82
2021/03/31 00:46:26;;;;;;;16.67;7.63;;;12.60;53.50;;;11.56;46.30;99342.41;5120797;28;20413;-80
2021/03/31 00:48:53;;;;;;;17.20;8.13;;;12.50;53.40;;;11.51;46.48;99348.31;5119048;28;20396;-82
2021/03/31 00:51:19;;;;;;;16.55;8.13;;;12.40;53.60;;;11.49;46.07;99345.09;5118643;28;20401;-81
2021/03/31 00:53:46;;;;;;;18.73;7.93;;;12.40;53.60;;;11.55;46.64;99348.72;5117882;28;20465;-82
2021/03/31 00:56:12;;;;;;;16.67;8.02;;;12.40;53.80;;;11.55;46.20;99343.44;5117017;28;20832;-81
2021/03/31 00:58:40;;;;;;;20.97;7.87;;;12.40;53.70;;;11.38;46.83;99337.75;5118510;28;20428;-81
2021/03/31 01:01:07;;;;;;;14.57;7.38;;;12.40;53.90;;;11.35;46.88;99338.16;5099695;28;20408;-83
2021/03/31 01:03:33;;;;;;;15.85;7.93;;;12.20;54.20;;;11.29;46.58;99336.34;5099782;28;20464;-83
2021/03/31 01:06:00;;;;;;;16.00;7.90;;;12.20;53.80;;;11.14;47.15;99338.41;5117156;28;20396;-82
2021/03/31 01:08:26;;;;;;;17.48;7.78;;;12.10;54.30;;;11.17;46.71;99333.53;5100023;28;20418;-83
2021/03/31 01:10:56;;;;;;;15.00;8.30;;;12.10;54.30;;;11.16;47.14;99333.72;5118737;28;20400;-83
2021/03/31 01:13:45;;;;;;;17.33;7.60;;;12.10;54.50;;;11.22;47.09;99327.59;5101376;28;20463;-83
2021/03/31 01:16:45;;;;;;;14.13;7.35;;;12.10;54.30;;;11.25;46.75;99327.19;5103192;28;20746;-83
2021/03/31 01:19:39;;;;;;;17.02;7.60;;;12.10;54.10;;;11.25;47.13;99333.31;5077622;28;20518;-83
2021/03/31 01:22:56;;;;;;;15.40;7.35;;;12.10;54.40;;;11.20;47.12;99327.00;5129018;28;20487;-82
2021/03/31 01:25:34;;;;;;;14.88;8.20;;;12.20;54.40;;;10.91;48.00;99320.31;5122872;28;20470;-82
2021/03/31 01:28:50;;;;;;;14.32;7.50;;;11.90;55.00;;;11.05;47.57;99321.91;5121537;28;20435;-83
2021/03/31 01:31:31;;;;;;;17.23;7.80;;;11.90;55.30;;;10.98;47.76;99317.63;5114686;28;20484;-83
2021/03/31 01:34:42;;;;;;;13.98;7.68;;;11.90;55.20;;;10.78;48.17;99315.84;5102516;28;20777;-83
2021/03/31 01:37:16;;;;;;;16.10;7.68;;;11.80;55.50;;;10.74;48.07;99306.69;5110026;28;20479;-84
2021/03/31 01:39:45;;;;;;;16.40;7.67;;;11.70;55.50;;;10.75;48.34;99305.63;5120840;28;20501;-83
2021/03/31 01:42:15;;;;;;;20.15;8.80;;;11.70;55.90;;;10.82;47.97;99305.66;5121242;28;20515;-83
2021/03/31 01:44:43;;;;;;;14.00;7.83;;;11.70;55.70;;;10.94;48.05;99298.72;5121940;28;20547;-82
2021/03/31 01:47:14;;;;;;;16.88;7.57;;;11.80;55.60;;;10.90;48.11;99299.34;5122245;28;20812;-83
2021/03/31 01:49:42;;;;;;;15.68;7.40;;;11.80;55.40;;;10.95;47.75;99292.38;5122002;28;20647;-83
2021/03/31 01:52:10;;;;;;;14.38;7.65;;;11.80;55.30;;;11.01;47.97;99288.09;5120623;28;20412;-83
2021/03/31 01:54:40;;;;;;;14.20;7.67;;;11.90;55.60;;;10.83;48.46;99289.53;5121247;28;20849;-84
2021/03/31 01:57:10;;;;;;;14.88;7.82;;;11.80;55.80;;;10.64;48.88;99292.22;5103298;28;20457;-83
2021/03/31 01:59:38;;;;;;;16.55;7.70;;;11.60;56.30;;;10.69;49.14;99289.75;5122010;28;20506;-83
2021/03/31 02:02:09;;;;;;;17.00;7.72;;;11.60;56.60;;;10.65;49.07;99289.38;5123056;28;20410;-83
2021/03/31 02:04:39;;;;;;;17.20;7.53;;;11.60;56.50;;;10.59;49.16;99289.38;5123361;28;20408;-83
2021/03/31 02:07:08;;;;;;;18.00;8.00;;;11.50;56.40;;;10.64;49.21;99284.28;5120227;28;20456;-83
2021/03/31 02:09:41;;;;;;;20.80;8.30;;;11.50;56.90;;;10.64;49.24;99281.63;5117921;28;20420;-82
2021/03/31 02:12:11;;;;;;;19.17;7.85;;;11.50;57.00;;;10.61;49.23;99282.03;5117144;28;20568;-84
2021/03/31 02:14:41;;;;;;;16.50;7.45;;;11.50;57.00;;;10.62;49.24;99278.34;5117615;28;20408;-83
2021/03/31 02:17:08;;;;;;;19.03;7.93;;;11.50;56.90;;;10.47;49.60;99271.44;5117144;28;20440;-83
2021/03/31 02:19:37;;;;;;;14.90;7.60;;;11.40;57.20;;;10.55;49.54;99270.41;5118099;28;20422;-82
2021/03/31 02:22:05;;;;;;;15.23;6.82;;;11.40;57.30;;;10.39;50.06;99269.00;5117154;28;20436;-84
2021/03/31 02:24:33;;;;;;;15.35;7.45;;;11.30;57.50;;;10.36;50.12;99269.41;5120456;28;20459;-83
2021/03/31 02:27:00;;;;;;;26.25;8.10;;;11.30;57.80;;;10.38;49.50;99266.53;5122476;28;20782;-83
2021/03/31 02:29:26;;;;;;;15.97;7.90;;;11.30;57.30;;;10.45;49.83;99270.81;5105187;28;20464;-83
2021/03/31 02:31:53;;;;;;;16.63;7.35;;;11.30;57.50;;;10.52;49.86;99270.03;5123118;28;20396;-83
2021/03/31 02:34:21;;;;;;;16.50;7.80;;;11.40;57.80;;;10.39;50.24;99266.34;5123785;28;20488;-83
2021/03/31 02:36:49;;;;;;;15.85;7.45;;;11.30;57.80;;;10.24;50.32;99268.38;5122340;28;20729;-83
2021/03/31 02:39:19;;;;;;;17.08;7.20;;;11.20;58.30;;;10.26;50.44;99265.53;5122148;28;20709;-83
2021/03/31 02:41:50;;;;;;;12.98;6.88;;;11.20;58.20;;;10.18;50.73;99258.59;5122144;28;20409;-83
2021/03/31 02:44:18;;;;;;;15.27;7.22;;;11.10;58.50;;;10.00;51.28;99261.78;5120967;28;20786;-83
2021/03/31 02:46:46;;;;;;;21.52;7.60;;;11.00;59.00;;;9.88;51.53;99255.47;5120560;28;20437;-81
2021/03/31 02:49:13;;;;;;;13.63;6.63;;;10.90;59.30;;;9.83;51.88;99254.44;5101367;28;20422;-83
2021/03/31 02:51:40;;;;;;;15.65;7.35;;;10.80;59.60;;;9.91;52.05;99254.28;5119082;28;20396;-83
2021/03/31 02:54:09;;;;;;;15.30;6.72;;;10.80;59.90;;;9.88;51.87;99254.66;5119771;28;20408;-82
2021/03/31 02:56:40;;;;;;;18.73;7.35;;;10.80;59.90;;;9.83;52.22;99252.63;5102681;28;20416;-83
2021/03/31 02:59:06;;;;;;;16.77;7.93;;;10.80;60.00;;;9.73;52.42;99254.81;5120468;28;20464;-83
2021/03/31 03:01:33;;;;;;;16.33;7.43;;;10.70;60.30;;;9.73;52.65;99251.38;5120639;28;20423;-83
2021/03/31 03:04:00;;;;;;;18.98;8.02;;;10.70;60.50;;;9.68;52.90;99249.34;5125152;28;20807;-82
2021/03/31 03:06:29;;;;;;;15.77;7.18;;;10.70;60.80;;;9.69;52.63;99249.13;5133692;28;20396;-81
2021/03/31 03:08:57;;;;;;;19.80;7.45;;;10.60;60.70;;;9.73;52.53;99244.25;5127726;28;20448;-82
2021/03/31 03:11:26;;;;;;;19.67;6.97;;;10.70;60.70;;;9.74;52.58;99243.25;5130980;28;20396;-83
2021/03/31 03:13:53;;;;;;;16.52;6.97;;;10.70;60.70;;;9.68;52.67;99236.94;5117031;28;20479;-84
2021/03/31 03:16:20;;;;;;;14.50;6.95;;;10.70;60.50;;;9.75;52.40;99242.22;5131805;28;20396;-83
2021/03/31 03:18:46;;;;;;;17.38;7.13;;;10.70;60.60;;;9.85;52.31;99250.56;5121128;28;20420;-82
2021/03/31 03:21:14;;;;;;;12.63;6.95;;;10.70;60.30;;;9.90;52.09;99245.53;5124261;28;20481;-83
2021/03/31 03:23:44;;;;;;;16.48;6.88;;;10.80;60.30;;;9.92;51.95;99238.19;5126115;28;20416;-82
2021/03/31 03:26:12;;;;;;;15.40;6.30;;;10.80;60.00;;;9.86;52.47;99246.91;5131628;28;20431;-83
2021/03/31 03:28:40;;;;;;;12.55;6.60;;;10.80;60.30;;;9.77;52.58;99248.16;5135107;28;20464;-83
2021/03/31 03:31:09;;;;;;;13.40;6.78;;;10.70;60.60;;;9.62;52.89;99242.22;5133375;28;20403;-83
2021/03/31 03:33:35;;;;;;;18.15;7.28;;;10.60;60.80;;;9.61;53.07;99241.38;5133346;28;20408;-83
2021/03/31 03:36:04;;;;;;;20.90;7.10;;;10.60;61.20;;;9.66;52.71;99241.59;5134132;28;20434;-83
2021/03/31 03:38:31;;;;;;;17.55;7.03;;;10.60;61.00;;;9.55;53.10;99243.97;5133023;27;20416;-83
2021/03/31 03:41:01;;;;;;;15.60;7.07;;;10.50;61.10;;;9.50;53.49;99244.59;5132037;28;20408;-84
2021/03/31 03:43:27;;;;;;;16.83;7.40;;;10.50;61.70;;;9.64;53.11;99240.16;5127398;28;20465;-84
2021/03/31 03:45:58;;;;;;;17.08;7.70;;;10.50;62.30;;;9.73;52.81;99241.59;5124204;28;20400;-84
2021/03/31 03:48:26;;;;;;;14.65;7.80;;;10.60;61.20;;;9.73;52.75;99232.84;5122988;28;20412;-82
2021/03/31 03:50:52;;;;;;;36.35;9.85;;;10.70;61.00;;;9.75;52.73;99241.41;5122616;28;20777;-83
2021/03/31 03:53:26;;;;;;;17.10;7.78;;;10.70;61.10;;;9.82;52.70;99229.03;5131273;28;20411;-81
2021/03/31 03:55:52;;;;;;;18.23;7.20;;;10.70;61.10;;;9.79;52.94;99237.34;5136354;28;20404;-80
2021/03/31 03:58:18;;;;;;;19.40;7.70;;;10.70;61.10;;;9.74;53.07;99240.59;5131854;28;20423;-84
2021/03/31 04:00:45;;;;;;;14.45;6.85;;;10.70;61.30;;;9.70;53.10;99234.88;5121323;28;20396;-83
2021/03/31 04:03:11;;;;;;;18.50;6.90;;;10.60;61.40;;;9.66;53.00;99241.59;5121625;28;20404;-82
2021/03/31 04:05:38;;;;;;;21.20;7.60;;;10.60;61.40;;;9.60;53.58;99233.66;5126281;28;20466;-82
2021/03/31 04:08:05;;;;;;;16.92;7.22;;;10.50;61.90;;;9.56;53.62;99238.50;5103595;28;20906;-83
2021/03/31 04:10:32;;;;;;;14.65;7.15;;;10.50;62.10;;;9.38;54.03;99243.53;5125824;28;20450;-82
2021/03/31 04:13:00;;;;;;;20.70;7.53;;;10.40;62.50;;;9.38;54.22;99240.91;5133151;28;20475;-83
2021/03/31 04:15:28;;;;;;;22.27;6.97;;;10.30;62.80;;;9.39;54.12;99239.88;5136640;28;20447;-82
2021/03/31 04:17:55;;;;;;;17.73;7.40;;;10.30;62.50;;;9.19;54.56;99231.88;5118685;28;20420;-82
2021/03/31 04:20:24;;;;;;;17.80;6.68;;;10.20;62.80;;;9.22;54.45;99235.94;5132167;28;20836;-82
2021/03/31 04:22:51;;;;;;;15.98;7.85;;;10.10;63.10;;;9.30;54.16;99241.06;5121765;28;20675;-82
2021/03/31 04:25:21;;;;;;;28.10;7.38;;;10.20;63.00;;;9.42;54.11;99234.19;5103249;28;20408;-81
2021/03/31 04:27:50;;;;;;;18.92;8.15;;;10.30;63.00;;;9.44;53.99;99236.66;5128067;28;20474;-80
2021/03/31 04:30:20;;;;;;;19.75;7.72;;;10.40;62.60;;;9.44;53.92;99245.38;5130906;28;20439;-81
2021/03/31 04:32:49;;;;;;;18.40;7.70;;;10.40;62.60;;;9.45;53.95;99241.75;5122423;28;20738;-82
2021/03/31 04:35:19;;;;;;;19.63;7.63;;;10.40;62.70;;;9.48;53.91;99240.50;5126469;28;20392;-81
2021/03/31 04:37:46;;;;;;;16.35;7.15;;;10.40;62.60;;;9.40;53.99;99238.84;5130778;28;20408;-80
2021/03/31 04:40:16;;;;;;;15.93;7.50;;;10.40;62.60;;;9.46;54.01;99240.72;5128494;28;20473;-82
2021/03/31 04:42:43;;;;;;;18.67;7.85;;;10.40;62.70;;;9.48;53.96;99246.59;5120483;28;20580;-83
2021/03/31 04:45:13;;;;;;;19.90;7.57;;;10.40;62.70;;;9.43;54.25;99241.13;5101372;28;20496;-82
2021/03/31 04:47:40;;;;;;;34.90;8.57;;;10.40;62.80;;;9.32;54.48;99242.47;5100015;28;20439;-82
2021/03/31 04:50:09;;;;;;;15.35;7.15;;;10.30;63.00;;;9.18;54.63;99245.25;5118656;28;20404;-82
2021/03/31 04:52:35;;;;;;;15.20;7.20;;;10.20;63.10;;;9.14;54.74;99250.16;5118823;28;20423;-82
2021/03/31 04:55:02;;;;;;;22.80;8.27;;;10.10;63.30;;;9.21;54.59;99250.16;5119815;28;20400;-81
2021/03/31 04:57:29;;;;;;;18.83;8.13;;;10.10;63.40;;;9.25;54.43;99246.09;5118819;28;20408;-81
2021/03/31 04:59:55;;;;;;;22.67;7.80;;;10.20;63.40;;;9.30;54.26;99251.63;5120368;28;20796;-81
2021/03/31 05:02:21;;;;;;;19.15;8.98;;;10.20;63.10;;;9.38;54.35;99251.47;5119655;28;20419;-81
2021/03/31 05:04:48;;;;;;;20.75;7.78;;;10.30;63.10;;;9.49;53.68;99252.72;5118564;28;20446;-81
2021/03/31 05:07:14;;;;;;;17.70;8.07;;;10.40;62.60;;;9.52;53.35;99247.88;5117400;28;20519;-82
2021/03/31 05:09:40;;;;;;;24.35;8.73;;;10.40;62.00;;;9.48;52.35;99243.16;5118435;28;20432;-81
2021/03/31 05:12:09;;;;;;;19.00;8.23;;;10.40;60.60;;;9.44;52.28;99252.50;5121358;28;20408;-80
2021/03/31 05:14:36;;;;;;;21.10;8.50;;;10.40;60.40;;;9.46;52.38;99248.66;5106355;28;20412;-82
2021/03/31 05:17:02;;;;;;;19.30;8.60;;;10.40;60.50;;;9.54;51.89;99247.66;5133084;28;20453;-82
2021/03/31 05:19:29;;;;;;;32.95;8.93;;;10.40;60.40;;;9.79;52.20;99251.38;5127303;28;20412;-81
2021/03/31 05:21:55;;;;;;;18.73;7.93;;;10.70;60.90;;;9.51;52.64;99245.41;5126351;28;20411;-80
2021/03/31 05:24:21;;;;;;;20.67;8.57;;;10.60;60.60;;;9.58;52.88;99246.25;5122670;28;20443;-80
2021/03/31 05:26:47;;;;;;;20.50;8.57;;;10.50;61.40;;;9.43;53.51;99237.66;5119040;28;20475;-80
2021/03/31 05:29:14;;;;;;;17.53;7.93;;;10.40;61.50;;;9.57;52.92;99242.78;5117914;28;20467;-81
2021/03/31 05:31:41;;;;;;;25.63;7.72;;;10.50;61.70;;;9.57;53.05;99239.31;5117714;28;20432;-82
2021/03/31 05:34:07;;;;;;;30.33;9.00;;;10.50;61.50;;;9.55;53.10;99236.88;5119663;28;20408;-81
2021/03/31 05:36:33;;;;;;;23.80;8.45;;;10.50;61.50;;;9.62;52.72;99236.91;5120288;28;20487;-81
2021/03/31 05:39:00;;;;;;;23.17;8.63;;;10.50;61.30;;;9.66;52.59;99231.03;5120243;28;20427;-82
2021/03/31 05:41:26;;;;;;;24.80;8.65;;;10.60;61.10;;;9.58;51.56;99233.84;5120915;28;20835;-84
2021/03/31 05:43:53;;;;;;;21.02;9.27;;;10.50;59.80;;;9.58;51.94;99225.09;5121386;28;20518;-82
2021/03/31 05:46:20;;;;;;;26.20;9.30;;;10.50;60.00;;;9.57;52.40;99232.22;5122915;28;20431;-83
2021/03/31 05:48:47;;;;;;;30.17;10.07;;;10.50;60.20;;;9.60;52.06;99225.72;5122535;28;20453;-84
2021/03/31 05:51:14;;;;;;;27.95;10.43;;;10.50;60.20;;;9.61;52.29;99222.06;5120084;28;21002;-83
2021/03/31 05:53:40;;;;;;;30.30;13.18;;;10.50;60.20;;;9.65;51.99;99224.09;5122537;28;20538;-84
2021/03/31 05:56:08;;;;;;;27.30;11.57;;;10.50;60.00;;;9.67;52.14;99226.53;5107578;28;20415;-84
2021/03/31 05:58:35;;;;;;;28.83;10.43;;;10.60;60.30;;;9.72;52.03;99221.47;5123471;28;20457;-84
2021/03/31 06:01:04;;;;;;;24.13;9.75;;;10.60;60.30;;;9.76;52.12;99213.97;5124950;28;20449;-84
2021/03/31 06:03:32;;;;;;;29.23;10.35;;;10.60;60.30;;;9.75;52.03;99213.16;5124899;28;20566;-83
2021/03/31 06:06:00;;;;;;;40.92;16.58;;;10.70;60.00;;;9.76;51.84;99208.66;5123438;28;20404;-83
2021/03/31 06:08:26;;;;;;;39.63;14.73;;;10.60;59.90;;;9.73;51.63;99209.88;5105847;28;20512;-82
2021/03/31 06:10:59;;;;;;;21.27;9.38;;;10.60;59.80;;;9.74;51.78;99206.22;5122611;28;20407;-83
2021/03/31 06:13:47;;;;;;;22.67;9.20;;;10.70;59.90;;;9.77;51.70;99205.81;5123379;28;20702;-83
2021/03/31 06:16:29;;;;;;;26.17;9.52;;;10.70;59.80;;;9.82;51.67;99210.50;5124329;28;20400;-83
2021/03/31 06:18:56;;;;;;;22.63;8.95;;;10.70;59.60;;;9.90;51.43;99210.31;5123803;28;20511;-83
2021/03/31 06:21:23;;;;;;;40.65;10.38;;;10.80;59.60;;;9.94;51.07;99206.22;5122542;28;20666;-83
2021/03/31 06:26:26;;;;;;;29.67;9.43;;;10.90;59.00;;;10.06;50.23;99208.09;5121399;28;20389;-83
2021/03/31 06:28:58;;;;;;;31.15;9.18;;;11.00;58.40;;;10.08;50.33;99210.50;5121802;28;20421;-83
2021/03/31 06:31:30;;;;;;;23.30;9.77;;;11.00;58.40;;;10.13;49.85;99208.09;5123969;28;20400;-83
2021/03/31 06:34:02;;;;;;;29.27;10.10;;;11.00;58.00;;;10.19;50.05;99209.13;5128475;28;20400;-83
2021/03/31 06:36:41;;;;;;;28.03;9.87;;;11.10;58.10;;;10.28;49.85;99210.56;5130677;28;20546;-84
2021/03/31 06:39:24;;;;;;;39.10;10.30;;;11.10;58.10;;;10.40;49.94;99217.69;5122991;28;20447;-84
2021/03/31 06:41:58;;;;;;;32.43;10.37;;;11.30;58.10;;;10.54;49.05;99207.06;5127669;28;20437;-83
2021/03/31 06:45:00;;;;;;;30.37;10.60;;;11.40;57.20;;;10.54;49.49;99209.72;5127925;28;20441;-83
2021/03/31 06:47:37;;;;;;;32.22;10.68;;;11.40;57.50;;;10.59;49.39;99212.56;5123965;28;20407;-84
2021/03/31 06:50:08;;;;;;;30.13;10.93;;;11.50;57.50;;;10.65;49.54;99209.91;5123284;28;20480;-84
2021/03/31 06:52:52;;;;;;;30.45;10.65;;;11.50;57.60;;;10.67;49.56;99207.88;5121812;28;20408;-84
2021/03/31 06:55:19;;;;;;;35.88;12.30;;;11.50;57.70;;;10.72;49.70;99210.72;5123640;28;20455;-83
2021/03/31 06:57:52;;;;;;;35.83;11.35;;;11.60;57.80;;;10.85;49.67;99207.22;5131002;28;20416;-83
2021/03/31 07:00:25;;;;;;;44.05;12.15;;;11.70;57.80;;;11.18;49.15;99210.59;5129124;28;20841;-82
2021/03/31 07:02:54;;;;;;;27.17;11.25;;;11.90;57.70;;;11.07;48.96;99210.41;5121590;28;20436;-82
2021/03/31 07:05:22;;;;;;;43.80;11.70;;;12.00;57.00;;;10.93;49.17;99209.63;5120746;28;20428;-84
2021/03/31 07:08:02;;;;;;;39.78;12.07;;;11.80;56.90;;;10.89;49.35;99205.78;5121989;28;20443;-83
2021/03/31 07:10:29;;;;;;;49.92;10.98;;;11.80;57.20;;;10.82;49.29;99210.28;5122395;28;20437;-82
2021/03/31 07:12:56;;;;;;;29.35;11.60;;;11.70;57.20;;;10.81;49.39;99208.66;5103566;28;20808;-80
2021/03/31 07:15:25;;;;;;;26.30;10.45;;;11.70;57.30;;;10.85;49.32;99212.50;5122103;28;20675;-79
2021/03/31 07:17:54;;;;;;;30.33;10.73;;;11.70;57.30;;;10.96;49.42;99214.53;5119221;28;20411;-79
2021/03/31 07:20:21;;;;;;;28.70;10.70;;;11.80;57.40;;;11.02;49.01;99204.94;5104026;28;20500;-83
2021/03/31 07:22:53;;;;;;;28.13;10.70;;;11.90;57.20;;;11.05;48.92;99205.31;5121427;28;20465;-82
2021/03/31 07:25:21;;;;;;;30.15;10.80;;;11.90;56.90;;;10.98;49.17;99211.66;5121419;28;20778;-84
2021/03/31 07:27:49;;;;;;;32.80;10.98;;;11.80;56.80;;;11.02;48.86;99212.88;5120789;28;20701;-83
2021/03/31 07:30:22;;;;;;;32.67;11.40;;;11.90;57.60;;;11.08;48.85;99202.25;5102243;28;20468;-83
2021/03/31 07:32:53;;;;;;;29.27;10.90;;;11.90;56.90;;;11.19;48.64;99211.41;5120983;28;20474;-83
2021/03/31 07:35:22;;;;;;;34.92;10.65;;;12.00;56.80;;;11.25;48.63;99205.25;5130106;28;20438;-83
2021/03/31 07:37:49;;;;;;;30.40;10.30;;;12.10;56.70;;;11.22;48.66;99208.31;5122015;28;20907;-84
2021/03/31 07:40:18;;;;;;;29.40;10.38;;;12.10;56.60;;;11.31;48.57;99211.53;5130362;28;20430;-83
2021/03/31 07:42:52;;;;;;;29.63;10.68;;;12.10;56.60;;;11.41;48.31;99210.06;5128191;28;20420;-83
2021/03/31 07:45:23;;;;;;;25.33;10.35;;;12.20;56.40;;;11.46;48.37;99201.47;5127835;28;20400;-85
2021/03/31 07:47:50;;;;;;;35.37;12.97;;;12.30;56.20;;;11.62;48.07;99200.97;5127551;28;20415;-84
2021/03/31 07:50:18;;;;;;;33.58;12.07;;;12.40;56.10;;;11.72;47.70;99204.00;5125667;28;20451;-83
2021/03/31 07:52:50;;;;;;;46.15;16.65;;;12.50;55.70;;;11.89;47.46;99199.81;5123823;28;20438;-83
2021/03/31 07:55:36;;;;;;;38.17;16.10;;;12.70;55.60;;;12.01;47.20;99195.44;5124607;28;20432;-83
2021/03/31 07:58:24;;;;;;;28.50;11.30;;;12.80;55.30;;;12.21;46.69;99195.28;5125310;28;20437;-84
2021/03/31 08:01:07;;;;;;;40.80;12.70;;;13.00;54.90;;;12.29;46.32;99189.69;5107254;28;20396;-84
2021/03/31 08:03:35;;;;;;;43.85;13.00;;;13.10;54.20;;;12.43;46.03;99192.22;5104671;28;20420;-84
2021/03/31 08:06:20;;;;;;;33.93;11.73;;;13.20;53.80;;;12.72;45.36;99188.88;5123950;28;20444;-82
2021/03/31 08:09:04;;;;;;;33.95;12.15;;;13.40;53.30;;;12.83;44.82;99184.69;5103974;28;20678;-82
2021/03/31 08:11:55;;;;;;;31.00;11.27;;;13.60;52.50;;;12.88;44.97;99184.81;5122585;28;20736;-84
2021/03/31 08:14:49;;;;;;;34.38;11.82;;;13.60;52.60;;;12.94;44.62;99190.06;5119563;28;20400;-82
2021/03/31 08:17:16;;;;;;;51.53;12.40;;;13.70;52.60;;;13.05;44.46;99191.16;5072817;28;20512;-83
2021/03/31 08:19:46;;;;;;;27.02;12.00;;;13.80;52.20;;;13.17;44.04;99195.53;5126980;28;20431;-84
2021/03/31 08:22:38;;;;;;;34.35;12.15;;;13.90;52.00;;;13.29;44.13;99184.97;5126027;28;20776;-84
2021/03/31 08:25:22;;;;;;;37.85;12.35;;;14.00;51.80;;;13.53;43.70;99185.91;5121931;28;20455;-84
2021/03/31 08:28:05;;;;;;;35.55;11.75;;;14.30;51.40;;;13.53;43.68;99184.03;5127922;28;20453;-84
2021/03/31 08:30:34;;;;;;;33.05;13.45;;;14.30;50.70;;;13.64;43.24;99189.63;5119855;28;20392;-82
2021/03/31 08:33:02;;;;;;;35.17;12.80;;;14.40;50.90;;;13.76;43.06;99177.97;5120054;28;20810;-82
2021/03/31 08:35:29;;;;;;;28.73;11.25;;;14.50;50.80;;;13.89;42.77;99180.44;5120074;28;20512;-85
2021/03/31 08:37:57;;;;;;;34.42;11.30;;;14.60;50.60;;;14.01;42.90;99176.97;5121409;28;20418;-84
2021/03/31 08:40:30;;;;;;;30.97;10.67;;;14.70;50.50;;;14.29;42.35;99177.94;5104398;28;20486;-84
2021/03/31 08:43:00;;;;;;;38.28;10.85;;;15.00;50.00;;;14.56;41.83;99186.31;5121120;28;20703;-84
2021/03/31 08:45:34;;;;;;;36.47;14.10;;;15.20;49.60;;;14.71;41.09;99181.31;5121647;28;20533;-84
2021/03/31 08:48:00;;;;;;;39.60;17.08;;;15.40;48.50;;;14.73;41.12;99172.28;5127981;28;20412;-83
2021/03/31 08:50:36;;;;;;;31.80;12.15;;;15.50;48.30;;;14.72;41.11;99179.47;5132099;28;20543;-84
2021/03/31 08:53:09;;;;;;;41.92;11.57;;;15.50;48.30;;;14.79;41.10;99184.69;5130608;28;20438;-83
2021/03/31 08:55:38;;;;;;;38.88;13.40;;;15.50;48.40;;;14.73;41.17;99174.97;5123188;28;20793;-83
2021/03/31 08:58:07;;;;;;;37.78;13.00;;;15.50;48.20;;;14.77;41.10;99176.09;5125876;28;20514;-83
2021/03/31 09:00:52;;;;;;;35.40;12.13;;;15.50;48.20;;;14.84;41.09;99174.94;5120582;28;20420;-83
2021/03/31 09:03:19;;;;;;;30.50;11.85;;;15.60;48.10;;;14.94;40.88;99167.16;5125146;28;20491;-83
2021/03/31 09:05:58;;;;;;;39.55;12.35;;;15.70;48.10;;;15.00;41.01;99176.88;5128191;28;20541;-83
2021/03/31 09:08:26;;;;;;;39.00;12.32;;;15.70;48.20;;;15.08;40.72;99165.03;5131340;28;20404;-83
2021/03/31 09:10:58;;;;;;;31.30;12.07;;;15.90;48.10;;;15.22;40.87;99162.88;5133150;28;20404;-83
2021/03/31 09:13:32;;;;;;;39.25;12.35;;;15.90;48.10;;;15.35;40.69;99159.94;5129742;28;20408;-83
2021/03/31 09:16:02;;;;;;;38.72;12.02;;;16.00;47.90;;;15.34;41.11;99163.66;5124849;28;20664;-83
2021/03/31 09:18:29;;;;;;;21.83;11.57;;;16.10;48.00;;;15.37;41.04;99158.66;5120142;28;20879;-83
2021/03/31 09:20:56;;;;;;;36.60;11.27;;;16.10;48.10;;;15.44;40.98;99153.97;5119475;28;20442;-83
2021/03/31 09:23:25;;;;;;;33.05;11.57;;;16.20;48.10;;;15.61;40.64;99147.91;5121847;28;20486;-83
2021/03/31 09:26:01;;;;;;;37.20;11.63;;;16.30;47.80;;;15.77;40.04;99147.13;5120645;28;20443;-82
2021/03/31 09:28:30;;;;;;;30.75;11.25;;;16.50;47.50;;;15.88;39.75;99143.56;5119365;28;20710;-82
2021/03/31 09:31:08;;;;;;;27.63;11.40;;;16.60;47.10;;;16.00;39.97;99138.16;5118974;28;20404;-82
2021/03/31 09:33:36;;;;;;;33.10;11.90;;;16.60;48.00;;;16.11;40.01;99140.72;5118895;28;20516;-82
2021/03/31 09:36:14;;;;;;;31.77;13.03;;;16.80;47.10;;;16.18;38.67;99140.56;5119903;28;20564;-81
2021/03/31 09:38:40;;;;;;;41.40;16.05;;;16.90;45.80;;;16.31;38.87;99142.91;5123840;28;20797;-84
2021/03/31 09:41:11;;;;;;;29.48;12.40;;;17.00;45.80;;;16.38;38.82;99138.22;5122012;28;20828;-83
2021/03/31 09:43:38;;;;;;;31.23;12.13;;;17.10;45.60;;;16.50;38.90;99130.88;5103575;28;20923;-83
2021/03/31 09:46:07;;;;;;;38.23;12.50;;;17.20;45.90;;;16.68;38.66;99134.38;5121317;28;20479;-85
2021/03/31 09:48:35;;;;;;;36.25;11.70;;;17.30;45.80;;;16.86;38.59;99136.72;5124354;28;20423;-83
2021/03/31 09:51:13;;;;;;;37.97;11.83;;;17.50;45.60;;;17.03;38.12;99135.59;5125834;28;20416;-83
2021/03/31 09:53:43;;;;;;;45.83;12.95;;;17.70;45.30;;;17.10;37.90;99126.56;5128584;28;20435;-83
2021/03/31 09:56:11;;;;;;;49.80;22.27;;;17.80;44.80;;;17.16;38.04;99128.25;5130668;28;20432;-84
2021/03/31 09:58:39;;;;;;;32.17;11.55;;;17.80;44.90;;;17.25;39.01;99118.72;5124650;28;20506;-84
2021/03/31 10:01:10;;;;;;;39.13;12.70;;;17.90;46.20;;;17.36;37.69;99125.81;5115568;28;20507;-82
2021/03/31 10:03:37;;;;;;;33.87;11.67;;;18.10;44.70;;;17.56;37.85;99109.94;5120492;28;20466;-81
2021/03/31 10:06:25;;;;;;;33.63;12.10;;;18.20;44.80;;;17.61;36.93;99120.72;5118313;28;20431;-82
2021/03/31 10:08:51;;;;;;;33.10;11.97;;;18.30;43.80;;;17.69;37.06;99111.41;5118609;28;20492;-84
2021/03/31 10:11:33;;;;;;;44.90;12.60;;;18.40;43.80;;;17.79;36.86;99112.31;5120247;28;20919;-83
2021/03/31 10:14:03;;;;;;;33.90;11.93;;;18.50;43.70;;;17.78;36.65;99109.88;5118331;28;20412;-81
2021/03/31 10:16:40;;;;;;;28.23;12.52;;;18.50;43.30;;;17.83;36.64;99109.91;5119261;28;20402;-83
2021/03/31 10:19:08;;;;;;;27.30;12.23;;;18.50;43.40;;;17.90;36.70;99107.81;5122275;28;20506;-83
2021/03/31 10:21:38;;;;;;;27.00;11.68;;;18.60;43.50;;;18.05;36.12;99104.44;5121311;28;20760;-82
2021/03/31 10:24:06;;;;;;;34.63;12.77;;;18.70;43.00;;;18.25;35.64;99093.06;5117973;28;20732;-82
2021/03/31 10:26:34;;;;;;;31.63;12.07;;;18.90;42.50;;;18.27;35.87;99093.63;5118973;28;20430;-81
2021/03/31 10:29:03;;;;;;;34.30;12.32;;;18.90;42.60;;;18.32;35.71;99094.47;5119322;28;20432;-83